Time;durP1;ratioP1;P1;durP2;ratioP2;P2;SDS_P1;SDS_P2;PMS_P1;PMS_P2;Temp;Humidity;BMP_temperature;BMP_pressure;BME280_temperature;BME280_humidity;BME280_pressure;Samples;Min_cycle;Max_cycle;Signal;HPM_P1;HPM_P2
2022/08/01 00:00:26;;;;;;;1.43;0.90;;;;;;;21.80;100.00;101003.94;2056074;28;20350;-65
2022/08/01 00:01:27;;;;;;;4.63;1.10;;;;;;;21.77;100.00;101005.69;2056803;28;20185;-66
2022/08/01 00:02:28;;;;;;;3.60;0.90;;;;;;;21.76;100.00;101006.97;2055977;28;20230;-65
2022/08/01 00:03:28;;;;;;;3.57;0.90;;;;;;;20.99;100.00;100893.44;2056122;28;20295;-65
2022/08/01 00:04:29;;;;;;;3.70;1.10;;;;;;;20.87;100.00;100874.09;2048755;28;20574;-65
2022/08/01 00:05:29;;;;;;;2.00;0.97;;;;;;;21.74;100.00;100998.22;2043363;29;20211;-65
2022/08/01 00:06:30;;;;;;;6.90;1.17;;;;;;;21.79;100.00;101008.00;2055937;28;20201;-65
2022/08/01 00:07:32;;;;;;;2.47;1.23;;;;;;;21.84;100.00;101005.22;2062417;28;20221;-65
2022/08/01 00:08:33;;;;;;;2.27;1.00;;;;;;;21.12;100.00;100895.88;2062554;28;20512;-65
2022/08/01 00:09:33;;;;;;;3.13;1.00;;;;;;;21.30;100.00;100924.50;2063770;28;20455;-64
2022/08/01 00:10:34;;;;;;;4.20;0.90;;;;;;;21.85;100.00;101006.78;2059044;28;20191;-65
2022/08/01 00:11:34;;;;;;;2.83;1.03;;;;;;;21.22;100.00;100914.16;2060429;28;20637;-64
2022/08/01 00:12:35;;;;;;;3.50;0.87;;;;;;;21.79;100.00;100994.69;2064302;28;20198;-65
2022/08/01 00:13:35;;;;;;;4.70;1.07;;;;;;;21.75;100.00;100982.09;2062517;28;20186;-65
2022/08/01 00:14:36;;;;;;;5.47;1.10;;;;;;;21.42;100.00;100933.81;2056176;28;20203;-65
2022/08/01 00:15:37;;;;;;;2.33;0.90;;;;;;;21.21;100.00;100918.25;2064780;28;20640;-66
2022/08/01 00:16:37;;;;;;;3.17;0.90;;;;;;;21.29;100.00;100925.75;2055885;28;20190;-65
2022/08/01 00:17:38;;;;;;;3.07;1.03;;;;;;;21.82;100.00;101004.97;2055122;28;20198;-65
2022/08/01 00:18:39;;;;;;;1.93;0.90;;;;;;;21.17;100.00;100915.66;2055589;28;20195;-65
2022/08/01 00:19:39;;;;;;;4.97;1.20;;;;;;;21.85;100.00;101009.59;2059958;28;20187;-66
2022/08/01 00:20:40;;;;;;;5.33;1.00;;;;;;;21.85;100.00;101003.19;2061116;28;20309;-66
2022/08/01 00:21:40;;;;;;;3.57;0.90;;;;;;;21.47;100.00;100950.78;2056697;28;20372;-65
2022/08/01 00:22:41;;;;;;;2.53;0.80;;;;;;;21.46;100.00;100942.81;2056365;28;20629;-65
2022/08/01 00:23:41;;;;;;;3.80;1.00;;;;;;;21.86;100.00;100999.84;2056363;28;20205;-65
2022/08/01 00:24:42;;;;;;;4.27;1.27;;;;;;;21.85;100.00;100997.56;2054380;28;20194;-65
2022/08/01 00:25:42;;;;;;;4.67;1.10;;;;;;;21.50;100.00;100946.97;2055753;28;20205;-66
2022/08/01 00:26:43;;;;;;;3.00;0.90;;;;;;;21.80;100.00;100995.47;2064245;28;20663;-65
2022/08/01 00:27:43;;;;;;;3.07;1.20;;;;;;;21.96;100.00;101008.94;2063896;28;20205;-66
2022/08/01 00:28:44;;;;;;;4.97;1.30;;;;;;;21.99;100.00;101017.16;2062028;28;20253;-65
2022/08/01 00:29:44;;;;;;;5.77;1.10;;;;;;;21.94;100.00;101003.00;2056236;28;20206;-65
2022/08/01 00:30:45;;;;;;;1.83;0.97;;;;;;;21.82;100.00;100990.09;2056747;28;20198;-65
2022/08/01 00:31:45;;;;;;;2.70;0.90;;;;;;;21.60;100.00;100956.78;2064695;28;20285;-65
2022/08/01 00:32:46;;;;;;;2.50;1.00;;;;;;;21.89;100.00;101004.50;2064463;28;20289;-66
2022/08/01 00:33:46;;;;;;;2.63;0.97;;;;;;;21.84;100.00;101008.06;2058339;28;20222;-65
2022/08/01 00:34:47;;;;;;;4.40;1.07;;;;;;;21.84;100.00;101005.22;2055701;28;20194;-65
2022/08/01 00:35:47;;;;;;;5.33;1.10;;;;;;;21.85;100.00;101003.19;2056109;28;20229;-65
2022/08/01 00:36:48;;;;;;;2.40;1.30;;;;;;;21.85;100.00;101009.59;2055861;28;20202;-64
2022/08/01 00:37:48;;;;;;;3.77;1.20;;;;;;;21.77;100.00;100994.41;2055774;28;20191;-66
2022/08/01 00:38:49;;;;;;;2.83;1.10;;;;;;;21.92;100.00;101003.53;2055700;28;20217;-65
2022/08/01 00:39:49;;;;;;;4.57;1.17;;;;;;;21.44;100.00;100940.50;2056898;28;20194;-66
2022/08/01 00:40:50;;;;;;;3.73;0.97;;;;;;;21.84;100.00;101010.09;2063370;28;20210;-65
2022/08/01 00:41:50;;;;;;;1.63;0.97;;;;;;;21.86;100.00;101004.75;2057888;28;20567;-66
2022/08/01 00:42:51;;;;;;;4.43;1.17;;;;;;;21.92;100.00;101009.16;2056447;28;20202;-66
2022/08/01 00:43:52;;;;;;;4.67;0.90;;;;;;;21.89;100.00;101003.72;2055947;28;20203;-65
2022/08/01 00:44:52;;;;;;;5.70;1.20;;;;;;;21.96;100.00;101012.50;2055816;28;20358;-65
2022/08/01 00:45:52;;;;;;;3.47;1.13;;;;;;;21.94;100.00;101008.63;2057505;28;20182;-65
2022/08/01 00:46:53;;;;;;;8.53;1.30;;;;;;;21.74;100.00;100994.66;2063316;28;20205;-65
2022/08/01 00:47:53;;;;;;;2.33;1.10;;;;;;;21.87;100.00;101011.91;2056738;28;20194;-66
2022/08/01 00:48:54;;;;;;;2.63;1.17;;;;;;;21.84;100.00;101013.69;2063449;28;20194;-65
2022/08/01 00:49:55;;;;;;;4.40;1.17;;;;;;;21.89;100.00;101012.97;2055467;28;20591;-65
2022/08/01 00:50:56;;;;;;;3.57;1.07;;;;;;;21.51;100.00;100954.16;2055355;28;20533;-65
2022/08/01 00:51:58;;;;;;;4.20;1.10;;;;;;;21.86;100.00;101008.31;2060104;28;20237;-65
2022/08/01 00:52:59;;;;;;;2.87;1.37;;;;;;;21.84;100.00;101007.28;2064404;28;20193;-65
2022/08/01 00:54:00;;;;;;;1.97;1.00;;;;;;;21.79;100.00;101008.00;2061629;28;20425;-65
2022/08/01 00:55:01;;;;;;;3.87;1.10;;;;;;;21.78;100.00;101006.47;2056666;28;20442;-64
2022/08/01 00:56:02;;;;;;;7.23;1.50;;;;;;;21.81;100.00;101008.28;2064489;28;20453;-65
2022/08/01 00:57:03;;;;;;;1.80;1.00;;;;;;;21.85;100.00;101000.38;2063667;28;20755;-65
2022/08/01 00:58:04;;;;;;;6.40;1.37;;;;;;;21.81;100.00;100994.19;2064157;28;20189;-65
2022/08/01 00:59:07;;;;;;;2.77;1.10;;;;;;;21.41;100.00;100943.56;2064302;28;20452;-65
2022/08/01 01:00:08;;;;;;;3.53;1.33;;;;;;;21.83;100.00;100989.59;2063210;28;20452;-65
2022/08/01 01:01:09;;;;;;;2.50;1.17;;;;;;;21.65;100.00;100961.69;2055693;28;20447;-65
2022/08/01 01:02:10;;;;;;;4.13;0.97;;;;;;;21.75;100.00;100971.56;2055452;28;20456;-65
2022/08/01 01:03:10;;;;;;;2.73;1.10;;;;;;;21.86;100.00;100976.53;2057736;28;20548;-65
2022/08/01 01:04:11;;;;;;;1.87;1.20;;;;;;;21.92;100.00;100986.59;2064121;28;20243;-65
2022/08/01 01:05:11;;;;;;;3.77;1.27;;;;;;;21.64;100.00;100957.34;2064111;28;20700;-65
2022/08/01 01:06:12;;;;;;;4.03;1.27;;;;;;;21.80;100.00;100987.00;2056606;28;20281;-65
2022/08/01 01:07:35;;;;;;;5.50;1.10;;;;;;;21.76;100.00;100984.41;2062285;28;20191;-65
2022/08/01 01:08:41;;;;;;;4.37;1.20;;;;;;;21.77;100.00;100988.00;2064560;28;20209;-65
2022/08/01 01:09:57;;;;;;;4.70;1.40;;;;;;;21.73;100.00;100995.91;2064092;28;20820;-65
2022/08/01 01:11:10;;;;;;;2.00;1.00;;;;;;;21.72;100.00;100986.69;2047935;29;20493;-65
2022/08/01 01:12:34;;;;;;;3.87;0.97;;;;;;;21.74;100.00;101001.03;2049358;28;20423;-65
2022/08/01 01:13:41;;;;;;;5.43;1.30;;;;;;;21.74;100.00;100992.59;2061802;28;20421;-65
2022/08/01 01:14:47;;;;;;;1.27;0.93;;;;;;;21.20;100.00;100914.69;2056209;28;20425;-65
2022/08/01 01:15:55;;;;;;;3.43;1.00;;;;;;;21.68;100.00;100994.59;2058115;28;20420;-65
2022/08/01 01:16:58;;;;;;;4.93;1.07;;;;;;;21.75;100.00;101001.84;2062119;28;20798;-65
2022/08/01 01:18:07;;;;;;;3.67;1.23;;;;;;;21.72;100.00;101005.63;2056781;28;20452;-65
2022/08/01 01:19:13;;;;;;;3.97;1.20;;;;;;;21.65;100.00;101008.88;2063218;28;20773;-64
2022/08/01 01:20:16;;;;;;;2.97;1.33;;;;;;;21.64;100.00;101013.00;2056306;28;20424;-66
2022/08/01 01:21:16;;;;;;;4.20;1.13;;;;;;;21.69;100.00;101006.66;2064605;28;20467;-64
2022/08/01 01:22:36;;;;;;;4.07;1.40;;;;;;;21.64;100.00;100996.81;2056723;28;20947;-65
2022/08/01 01:23:36;;;;;;;3.33;1.17;;;;;;;21.71;100.00;101010.53;2056186;28;20194;-65
2022/08/01 01:25:10;;;;;;;3.80;1.13;;;;;;;21.71;100.00;101004.09;2055457;28;20454;-66
2022/08/01 01:26:28;;;;;;;5.13;1.27;;;;;;;21.69;100.00;101004.59;2055750;28;20255;-65
2022/08/01 01:27:50;;;;;;;2.37;1.10;;;;;;;21.62;100.00;100999.38;2056138;28;20472;-65
2022/08/01 01:29:17;;;;;;;2.97;1.10;;;;;;;21.59;100.00;101005.25;2057533;28;20535;-64
2022/08/01 01:30:18;;;;;;;3.17;1.23;;;;;;;21.55;100.00;101011.09;2057572;28;20962;-64
2022/08/01 01:31:21;;;;;;;5.30;1.37;;;;;;;21.52;100.00;100989.53;2057470;28;20457;-65
2022/08/01 01:32:39;;;;;;;3.67;1.17;;;;;;;21.56;100.00;101006.25;2057569;28;20452;-64
2022/08/01 01:33:40;;;;;;;2.17;1.10;;;;;;;21.54;100.00;101009.56;2057117;28;20868;-65
2022/08/01 01:34:44;;;;;;;4.10;1.30;;;;;;;21.57;100.00;101002.94;2057128;28;20437;-64
2022/08/01 01:35:50;;;;;;;4.80;1.53;;;;;;;21.49;100.00;101003.88;2062252;28;20962;-64
2022/08/01 01:36:54;;;;;;;2.60;1.63;;;;;;;21.46;100.00;101007.69;2065198;28;20825;-64
2022/08/01 01:38:17;;;;;;;6.70;1.37;;;;;;;21.47;100.00;101000.75;2061610;28;20954;-64
2022/08/01 01:39:18;;;;;;;2.20;1.20;;;;;;;21.47;100.00;100998.72;2057549;28;20883;-65
2022/08/01 01:40:21;;;;;;;6.13;1.43;;;;;;;21.42;100.00;101015.56;2061813;28;20448;-65
2022/08/01 01:41:23;;;;;;;2.03;1.20;;;;;;;21.20;100.00;100956.94;2061629;28;20719;-65
2022/08/01 01:42:26;;;;;;;2.70;1.10;;;;;;;21.47;100.00;100995.91;2059968;28;20566;-65
2022/08/01 01:43:29;;;;;;;9.23;1.53;;;;;;;21.25;100.00;100973.16;2064997;28;20897;-65
2022/08/01 01:44:30;;;;;;;4.13;1.30;;;;;;;21.24;100.00;100959.53;2056007;28;20778;-64
2022/08/01 01:45:31;;;;;;;3.77;1.20;;;;;;;21.02;100.00;100934.72;2057127;28;20425;-64
2022/08/01 01:46:33;;;;;;;2.83;1.10;;;;;;;21.00;100.00;100945.72;2065873;28;20432;-65
2022/08/01 01:47:36;;;;;;;3.87;1.10;;;;;;;20.88;100.00;100915.84;2057869;28;20202;-65
2022/08/01 01:48:38;;;;;;;4.80;1.10;;;;;;;20.96;100.00;100911.34;2057760;28;20193;-65
2022/08/01 01:49:41;;;;;;;3.37;1.30;;;;;;;21.49;100.00;100986.97;2062776;28;20599;-65
2022/08/01 01:50:45;;;;;;;4.17;1.20;;;;;;;21.50;100.00;100986.44;2060752;28;20949;-65
2022/08/01 01:51:47;;;;;;;3.13;1.10;;;;;;;21.56;100.00;100987.28;2057189;28;20521;-64
2022/08/01 01:52:49;;;;;;;2.70;1.20;;;;;;;20.91;100.00;100885.94;2060701;28;20453;-65
2022/08/01 01:53:53;;;;;;;2.77;1.23;;;;;;;21.17;100.00;100914.88;2065255;28;20430;-65
2022/08/01 01:54:55;;;;;;;1.80;0.97;;;;;;;21.51;100.00;100976.72;2054293;28;20426;-65
2022/08/01 01:55:57;;;;;;;3.10;1.10;;;;;;;21.46;100.00;100971.03;2049966;28;20427;-64
2022/08/01 01:57:00;;;;;;;3.17;1.13;;;;;;;21.24;100.00;100957.47;2065091;28;20868;-64
2022/08/01 01:58:01;;;;;;;4.67;1.20;;;;;;;20.93;100.00;100909.53;2057796;28;20426;-64
2022/08/01 01:59:03;;;;;;;3.67;1.20;;;;;;;21.06;100.00;100923.22;2064471;28;20450;-64
2022/08/01 02:00:06;;;;;;;3.03;1.30;;;;;;;21.41;100.00;100978.16;2059292;28;20548;-65
2022/08/01 02:01:08;;;;;;;3.00;1.17;;;;;;;21.42;100.00;100978.94;2062813;28;20536;-65
2022/08/01 02:02:10;;;;;;;1.53;0.97;;;;;;;20.82;100.00;100897.34;2065141;28;20449;-65
2022/08/01 02:03:12;;;;;;;3.23;1.30;;;;;;;21.34;100.00;100975.03;2061192;28;20429;-64
2022/08/01 02:04:13;;;;;;;2.43;1.00;;;;;;;21.38;100.00;100975.53;2059818;28;20465;-65
2022/08/01 02:05:15;;;;;;;2.63;1.10;;;;;;;21.36;100.00;100976.06;2064436;28;20425;-65
2022/08/01 02:06:16;;;;;;;5.20;1.10;;;;;;;21.36;100.00;100980.91;2064937;28;20429;-65
2022/08/01 02:07:21;;;;;;;3.90;1.20;;;;;;;20.92;100.00;100924.09;2057189;28;20437;-64
2022/08/01 02:08:23;;;;;;;5.77;1.43;;;;;;;21.25;100.00;100966.72;2061838;28;20814;-65
2022/08/01 02:09:26;;;;;;;4.87;1.13;;;;;;;20.63;100.00;100882.03;2069000;28;20444;-65
2022/08/01 02:10:29;;;;;;;3.73;1.10;;;;;;;21.32;100.00;100975.50;2066916;28;20441;-65
2022/08/01 02:11:30;;;;;;;3.33;1.30;;;;;;;21.30;100.00;100971.63;2059623;28;20470;-64
2022/08/01 02:12:35;;;;;;;3.03;1.17;;;;;;;21.28;100.00;100969.31;2062021;28;20892;-64
2022/08/01 02:13:38;;;;;;;3.20;1.10;;;;;;;20.90;100.00;100927.44;2064440;28;20986;-64
2022/08/01 02:14:39;;;;;;;4.60;1.50;;;;;;;21.36;100.00;100969.66;2063989;28;20466;-65
2022/08/01 02:15:40;;;;;;;3.13;1.10;;;;;;;21.34;100.00;100963.75;2056375;28;20434;-65
2022/08/01 02:16:44;;;;;;;4.03;1.30;;;;;;;21.15;100.00;100934.34;2056485;28;20446;-64
2022/08/01 02:17:48;;;;;;;2.87;1.03;;;;;;;21.30;100.00;100963.19;2056467;28;20672;-64
2022/08/01 02:18:49;;;;;;;4.43;1.20;;;;;;;21.03;100.00;100915.78;2065658;28;20525;-65
2022/08/01 02:19:50;;;;;;;3.80;1.10;;;;;;;21.44;100.00;100963.06;2065252;28;20440;-65
2022/08/01 02:20:54;;;;;;;3.47;1.40;;;;;;;21.39;100.00;100958.13;2058209;28;20592;-65
2022/08/01 02:22:01;;;;;;;2.40;1.00;;;;;;;21.42;100.00;100959.19;2057110;28;20206;-65
2022/08/01 02:23:12;;;;;;;3.63;1.30;;;;;;;21.40;100.00;100965.31;2062864;28;20599;-64
2022/08/01 02:24:21;;;;;;;3.70;1.10;;;;;;;21.45;100.00;100955.38;2058827;28;20452;-65
2022/08/01 02:25:29;;;;;;;1.80;1.10;;;;;;;21.34;100.00;100960.94;2062793;28;20449;-65
2022/08/01 02:26:30;;;;;;;2.67;1.37;;;;;;;21.33;100.00;100943.22;2050088;28;20545;-64
2022/08/01 02:27:43;;;;;;;4.73;1.10;;;;;;;21.10;100.00;100909.69;2052619;28;20488;-65
2022/08/01 02:28:56;;;;;;;2.43;1.10;;;;;;;21.38;100.00;100967.88;2051103;28;20500;-65
2022/08/01 02:30:04;;;;;;;2.30;1.07;;;;;;;21.40;100.00;100954.03;2050330;28;20450;-65
2022/08/01 02:31:10;;;;;;;5.10;1.27;;;;;;;21.50;100.00;100960.31;2054034;28;20495;-65
2022/08/01 02:32:24;;;;;;;2.67;1.10;;;;;;;21.53;100.00;100960.06;2057385;28;20445;-64
2022/08/01 02:33:31;;;;;;;2.10;1.03;;;;;;;21.01;100.00;100904.22;2064019;28;20460;-64
2022/08/01 02:34:35;;;;;;;3.40;1.00;;;;;;;21.41;100.00;100972.53;2058953;28;20529;-65
2022/08/01 02:35:38;;;;;;;3.60;1.10;;;;;;;21.44;100.00;100965.13;2057206;28;20462;-64
2022/08/01 02:36:39;;;;;;;2.37;1.30;;;;;;;21.37;100.00;100938.13;2048412;28;20551;-65
2022/08/01 02:37:42;;;;;;;4.33;1.07;;;;;;;21.46;100.00;100974.63;2050684;28;20492;-64
2022/08/01 02:38:45;;;;;;;2.00;1.20;;;;;;;21.46;100.00;100959.75;2056070;28;20190;-65
2022/08/01 02:39:50;;;;;;;4.00;1.10;;;;;;;21.46;100.00;100951.28;2054734;28;21019;-64
2022/08/01 02:40:54;;;;;;;3.03;1.30;;;;;;;21.49;100.00;100951.06;2057882;28;20478;-65
2022/08/01 02:41:59;;;;;;;2.10;1.10;;;;;;;21.19;100.00;100913.09;2065252;28;20436;-65
2022/08/01 02:43:03;;;;;;;3.93;1.37;;;;;;;21.54;100.00;100955.97;2056406;28;20437;-64
2022/08/01 02:44:06;;;;;;;3.33;1.23;;;;;;;20.92;100.00;100865.72;2056015;28;20445;-64
2022/08/01 02:45:09;;;;;;;2.30;1.00;;;;;;;21.43;100.00;100927.69;2056582;28;20438;-65
2022/08/01 02:46:18;;;;;;;4.27;1.23;;;;;;;21.61;100.00;100951.94;2063094;28;20444;-65
2022/08/01 02:47:20;;;;;;;1.20;1.07;;;;;;;21.60;100.00;100948.31;2058415;28;20497;-65
2022/08/01 02:48:25;;;;;;;2.93;1.20;;;;;;;21.49;100.00;100927.75;2056927;28;20614;-64
2022/08/01 02:49:30;;;;;;;3.37;1.03;;;;;;;21.65;100.00;100944.03;2057390;28;20453;-64
2022/08/01 02:50:33;;;;;;;2.37;0.90;;;;;;;21.66;100.00;100945.56;2060729;28;20441;-65
2022/08/01 02:51:36;;;;;;;3.73;1.20;;;;;;;21.63;100.00;100943.72;2064815;28;20476;-64
2022/08/01 02:52:38;;;;;;;3.03;1.30;;;;;;;21.66;100.00;100946.34;2056318;28;20445;-65
2022/08/01 02:53:42;;;;;;;3.13;1.00;;;;;;;21.58;100.00;100948.06;2056254;28;20485;-65
2022/08/01 02:54:45;;;;;;;3.30;1.10;;;;;;;20.92;100.00;100848.03;2064432;28;20869;-65
2022/08/01 02:55:47;;;;;;;2.90;1.20;;;;;;;21.60;100.00;100942.69;2064514;28;20808;-64
2022/08/01 02:56:50;;;;;;;1.63;1.00;;;;;;;21.62;100.00;100948.63;2056790;28;20481;-64
2022/08/01 02:57:53;;;;;;;3.33;1.20;;;;;;;21.59;100.00;100943.22;2063794;28;20507;-64
2022/08/01 02:58:54;;;;;;;2.27;1.00;;;;;;;21.63;100.00;100946.56;2056138;28;20515;-65
2022/08/01 02:59:57;;;;;;;3.13;1.20;;;;;;;21.07;100.00;100872.00;2053140;28;20458;-65
2022/08/01 03:00:58;;;;;;;3.23;1.20;;;;;;;21.53;100.00;100953.66;2061394;28;20222;-65
2022/08/01 03:02:01;;;;;;;2.03;0.80;;;;;;;21.63;100.00;100950.16;2065029;28;20433;-65
2022/08/01 03:03:04;;;;;;;2.50;1.00;;;;;;;21.63;100.00;100943.72;2064526;28;20449;-64
2022/08/01 03:04:06;;;;;;;2.13;1.10;;;;;;;21.61;100.00;100951.94;2064563;28;20432;-65
2022/08/01 03:05:08;;;;;;;2.60;1.20;;;;;;;21.55;100.00;100943.41;2064126;28;20417;-65
2022/08/01 03:06:09;;;;;;;3.13;1.20;;;;;;;21.17;100.00;100884.66;2064874;28;20449;-64
2022/08/01 03:07:12;;;;;;;2.97;1.33;;;;;;;21.59;100.00;100938.31;2064903;28;20429;-65
2022/08/01 03:08:15;;;;;;;4.97;1.20;;;;;;;21.06;100.00;100856.38;2056363;28;20442;-64
2022/08/01 03:09:17;;;;;;;3.53;0.97;;;;;;;21.56;100.00;100944.97;2048544;28;20454;-65
2022/08/01 03:10:19;;;;;;;2.53;1.30;;;;;;;21.56;100.00;100941.38;2056427;28;20463;-64
2022/08/01 03:11:23;;;;;;;3.67;1.30;;;;;;;21.58;100.00;100938.81;2056776;28;20452;-64
2022/08/01 03:12:29;;;;;;;4.80;1.10;;;;;;;21.48;100.00;100937.44;2057113;28;20445;-64
2022/08/01 03:13:31;;;;;;;1.73;0.97;;;;;;;21.45;100.00;100938.47;2059661;28;20451;-64
2022/08/01 03:14:36;;;;;;;2.93;1.30;;;;;;;21.27;100.00;100919.06;2063925;28;20444;-65
2022/08/01 03:15:40;;;;;;;2.97;1.00;;;;;;;21.34;100.00;100925.03;2053922;28;20498;-64
2022/08/01 03:16:44;;;;;;;2.53;1.20;;;;;;;21.37;100.00;100937.34;2048330;28;20485;-65
2022/08/01 03:17:46;;;;;;;3.40;1.10;;;;;;;21.35;100.00;100928.63;2057511;28;20495;-65
2022/08/01 03:18:49;;;;;;;2.13;1.20;;;;;;;20.79;100.00;100856.09;2064331;28;20422;-64
2022/08/01 03:19:52;;;;;;;2.90;1.10;;;;;;;21.36;100.00;100925.31;2065246;28;20808;-64
2022/08/01 03:21:12;;;;;;;2.77;1.10;;;;;;;21.39;100.00;100934.84;2057130;28;20484;-65
2022/08/01 03:22:14;;;;;;;2.57;0.97;;;;;;;21.38;100.00;100930.44;2065123;28;20404;-65
2022/08/01 03:23:16;;;;;;;3.30;1.10;;;;;;;21.37;100.00;100934.53;2056657;28;20517;-65
2022/08/01 03:24:19;;;;;;;3.07;1.17;;;;;;;21.36;100.00;100942.25;2064290;28;20444;-65
2022/08/01 03:25:21;;;;;;;3.57;1.27;;;;;;;21.41;100.00;100930.25;2057325;28;20460;-65
2022/08/01 03:26:22;;;;;;;2.97;1.10;;;;;;;21.42;100.00;100934.59;2057185;28;20496;-64
2022/08/01 03:27:25;;;;;;;3.43;0.90;;;;;;;21.44;100.00;100939.75;2060840;28;20448;-64
2022/08/01 03:28:26;;;;;;;2.73;1.20;;;;;;;21.44;100.00;100942.56;2064319;28;20487;-65
2022/08/01 03:29:29;;;;;;;4.27;1.13;;;;;;;20.78;100.00;100841.22;2064805;28;20457;-65
2022/08/01 03:32:28;;;;;;;3.90;1.10;;;;;;;21.63;100.00;100955.00;2062202;28;20536;-64
2022/08/01 03:33:29;;;;;;;3.77;1.10;;;;;;;21.17;100.00;100881.84;2063179;28;20425;-65
2022/08/01 03:34:30;;;;;;;4.30;1.10;;;;;;;21.61;100.00;100949.09;2064364;28;20425;-65
2022/08/01 03:35:33;;;;;;;4.97;1.50;;;;;;;21.12;100.00;100864.88;2057551;28;20199;-64
2022/08/01 03:36:49;;;;;;;3.30;1.07;;;;;;;21.74;100.00;100955.91;2063091;28;20649;-65
2022/08/01 03:37:53;;;;;;;1.63;1.07;;;;;;;21.55;100.00;100929.31;2064700;28;20942;-64
2022/08/01 03:38:58;;;;;;;3.33;1.10;;;;;;;21.40;100.00;100899.72;2057858;28;20449;-65
2022/08/01 03:40:04;;;;;;;3.47;1.00;;;;;;;21.84;100.00;100967.78;2062668;28;20532;-64
2022/08/01 03:41:15;;;;;;;6.00;1.10;;;;;;;21.10;100.00;100842.84;2064663;28;20457;-65
2022/08/01 03:42:20;;;;;;;2.87;1.10;;;;;;;21.95;100.00;100962.25;2058471;28;20504;-65
2022/08/01 03:43:35;;;;;;;4.43;1.00;;;;;;;21.99;100.00;100960.72;2061587;28;20485;-65
2022/08/01 03:44:38;;;;;;;3.20;1.10;;;;;;;21.88;100.00;100946.53;2057777;28;20946;-65
2022/08/01 03:45:45;;;;;;;2.23;1.00;;;;;;;22.11;100.00;100956.69;2056872;28;20505;-64
2022/08/01 03:46:56;;;;;;;4.20;1.17;;;;;;;21.70;100.00;100884.09;2061526;28;20484;-65
2022/08/01 03:48:01;;;;;;;4.33;1.10;;;;;;;22.24;100.00;100954.22;2059454;28;20446;-65
2022/08/01 03:49:10;;;;;;;3.10;1.00;;;;;;;22.28;100.00;100957.56;2059247;28;20896;-64
2022/08/01 03:50:14;;;;;;;2.20;1.10;;;;;;;22.08;100.00;100934.34;2064245;28;20445;-66
2022/08/01 03:51:17;;;;;;;3.97;1.03;;;;;;;22.44;100.00;100961.75;2059901;28;20461;-66
2022/08/01 03:52:19;;;;;;;4.03;1.30;;;;;;;22.42;100.00;100973.53;2056727;28;20531;-65
2022/08/01 03:53:24;;;;;;;2.63;1.30;;;;;;;21.97;100.00;100891.94;2055963;28;20936;-65
2022/08/01 03:54:41;;;;;;;3.60;1.20;;;;;;;22.49;100.00;100973.13;2058270;28;20410;-64
2022/08/01 03:55:43;;;;;;;1.60;0.90;;;;;;;21.81;100.00;100881.34;2064531;28;20893;-65
2022/08/01 03:56:47;;;;;;;6.80;1.50;;;;;;;22.44;100.00;100978.69;2061647;28;20469;-65
2022/08/01 03:57:49;;;;;;;1.77;0.93;;;;;;;22.48;100.00;100980.03;2058321;28;20802;-65
2022/08/01 03:58:50;;;;;;;2.07;1.07;;;;;;;22.51;100.00;100970.53;2064437;28;20425;-65
2022/08/01 03:59:51;;;;;;;5.13;1.27;;;;;;;22.59;100.00;100973.66;2064982;28;20444;-64
2022/08/01 04:00:53;;;;;;;4.53;1.20;;;;;;;22.67;100.00;100971.91;2056244;28;20521;-65
2022/08/01 04:01:55;;;;;;;2.93;0.97;;;;;;;22.62;100.00;100959.28;2056366;28;20190;-65
2022/08/01 04:02:56;;;;;;;6.50;1.13;;;;;;;22.39;100.00;100914.50;2062740;28;20452;-65
2022/08/01 04:03:59;;;;;;;3.30;1.30;;;;;;;22.33;100.00;100897.53;2063945;28;21002;-65
2022/08/01 04:04:59;;;;;;;1.87;1.00;;;;;;;22.85;100.00;100983.53;2059943;28;20194;-65
2022/08/01 04:06:04;;;;;;;2.47;1.20;;;;;;;22.84;100.00;100969.91;2058276;28;20446;-65
2022/08/01 04:07:06;;;;;;;3.83;1.03;;;;;;;22.94;100.00;100974.06;2064218;28;20193;-65
2022/08/01 04:08:07;;;;;;;2.90;1.00;;;;;;;22.98;100.00;100968.94;2063019;28;20957;-64
2022/08/01 04:09:08;;;;;;;2.93;1.30;;;;;;;22.95;100.00;100978.44;2056862;28;20801;-65
2022/08/01 04:10:08;;;;;;;4.13;1.20;;;;;;;22.99;100.00;100974.09;2064851;28;20183;-66
2022/08/01 04:11:10;;;;;;;1.83;0.97;;;;;;;22.51;100.00;100896.34;2064335;28;20441;-66
2022/08/01 04:12:10;;;;;;;2.97;1.20;;;;;;;23.09;100.00;100971.78;2058366;28;20336;-65
2022/08/01 04:13:11;;;;;;;3.43;1.53;;;;;;;23.10;100.00;100979.78;2056147;28;20897;-65
2022/08/01 04:14:11;;;;;;;2.40;1.10;;;;;;;23.07;100.00;100969.47;2060794;28;20210;-65
2022/08/01 04:15:12;;;;;;;2.90;1.10;;;;;;;22.83;100.00;100943.69;2063912;28;20194;-65
2022/08/01 04:16:12;;;;;;;4.30;1.03;;;;;;;23.05;100.00;100971.25;2055812;28;20190;-65
2022/08/01 04:17:13;;;;;;;3.67;1.30;;;;;;;22.70;100.00;100917.22;2055663;28;20183;-64
2022/08/01 04:18:13;;;;;;;2.30;1.30;;;;;;;23.06;100.00;100981.28;2064968;28;20708;-65
2022/08/01 04:19:14;;;;;;;3.13;1.30;;;;;;;23.02;100.00;100989.25;2064411;28;20618;-65
2022/08/01 04:20:15;;;;;;;2.97;0.97;;;;;;;22.56;100.00;100915.38;2064011;28;20193;-65
2022/08/01 04:21:21;;;;;;;2.00;1.30;;;;;;;22.62;100.00;100933.88;2058964;28;20193;-65
2022/08/01 04:22:22;;;;;;;3.13;1.20;;;;;;;22.98;100.00;100988.72;2056684;28;20470;-65
2022/08/01 04:23:26;;;;;;;4.60;1.20;;;;;;;23.01;100.00;100993.34;2056202;28;21229;-65
2022/08/01 04:24:29;;;;;;;7.57;1.40;;;;;;;22.76;100.00;100951.88;2055912;28;20198;-66
2022/08/01 04:25:34;;;;;;;2.23;1.30;;;;;;;22.99;100.00;100985.41;2056339;28;20464;-66
2022/08/01 04:26:36;;;;;;;2.80;1.43;;;;;;;23.04;100.00;100995.94;2055262;28;20417;-64
2022/08/01 04:27:40;;;;;;;4.43;1.10;;;;;;;22.62;100.00;100938.75;2053874;28;20452;-62
2022/08/01 04:28:42;;;;;;;2.87;1.10;;;;;;;22.40;100.00;100904.72;2060412;28;20429;-63
2022/08/01 04:29:43;;;;;;;4.17;1.33;;;;;;;22.82;100.00;100980.97;2068164;28;20507;-63
2022/08/01 04:30:47;;;;;;;3.30;1.27;;;;;;;22.98;100.00;101000.78;2067786;28;20447;-62
2022/08/01 04:31:49;;;;;;;3.53;1.20;;;;;;;22.96;100.00;100994.09;2062001;28;20449;-63
2022/08/01 04:32:52;;;;;;;3.50;1.10;;;;;;;23.04;100.00;100992.34;2064133;28;20460;-62
2022/08/01 04:33:55;;;;;;;5.03;1.40;;;;;;;22.58;100.00;100924.09;2058463;28;20468;-62
2022/08/01 04:34:58;;;;;;;4.47;0.93;;;;;;;23.05;100.00;100991.06;2051323;28;20691;-62
2022/08/01 04:36:01;;;;;;;1.83;1.20;;;;;;;23.06;100.00;100996.19;2056808;28;20672;-62
2022/08/01 04:37:02;;;;;;;6.03;1.37;;;;;;;23.11;100.00;100989.78;2064845;28;20337;-62
2022/08/01 04:38:04;;;;;;;3.50;1.27;;;;;;;23.12;100.00;100984.88;2065559;28;20190;-63
2022/08/01 04:39:06;;;;;;;5.93;1.47;;;;;;;23.16;100.00;100986.22;2065112;28;20555;-63
2022/08/01 04:40:08;;;;;;;4.63;1.37;;;;;;;23.17;100.00;100989.78;2067126;28;20253;-62
2022/08/01 04:41:12;;;;;;;1.97;1.10;;;;;;;23.21;100.00;100991.13;2065814;28;20217;-63
2022/08/01 04:42:13;;;;;;;3.57;1.30;;;;;;;;;;2067935;28;20264;-63
2022/08/01 04:43:14;;;;;;;3.40;1.20;;;;;;;23.26;100.00;100990.38;2065362;28;20260;-62
2022/08/01 04:44:16;;;;;;;3.07;1.13;;;;;;;23.26;100.00;100987.53;2063852;28;20281;-63
2022/08/01 04:45:17;;;;;;;2.80;1.43;;;;;;;22.97;100.00;100928.59;2063669;28;20222;-63
2022/08/01 04:46:19;;;;;;;4.60;1.50;;;;;;;22.97;100.00;100937.06;2063722;28;20190;-62
2022/08/01 04:47:20;;;;;;;3.30;1.10;;;;;;;23.38;100.00;100991.19;2060961;28;20503;-64
2022/08/01 04:48:24;;;;;;;6.77;1.20;;;;;;;23.38;100.00;100988.34;2065020;28;20269;-63
2022/08/01 04:49:24;;;;;;;5.67;1.30;;;;;;;23.10;100.00;100953.53;2064011;28;20182;-63
2022/08/01 04:50:25;;;;;;;3.07;1.27;;;;;;;23.37;100.00;100987.56;2067714;28;20175;-63
2022/08/01 04:51:26;;;;;;;4.33;1.23;;;;;;;23.30;100.00;101001.44;2050450;28;20201;-63
2022/08/01 04:52:37;;;;;;;2.50;1.27;;;;;;;23.38;100.00;100999.66;2052654;28;20190;-63
2022/08/01 04:53:37;;;;;;;3.37;1.20;;;;;;;22.88;100.00;100919.59;2062517;28;20461;-63